sensor_id;sensor_type;location;lat;lon;timestamp;temperature;humidity
34646;DHT22;20857;47.808;12.482;2023-05-20T00:02:07;10.00;99.90
34646;DHT22;20857;47.808;12.482;2023-05-20T00:04:33;10.90;99.90
34646;DHT22;20857;47.808;12.482;2023-05-20T00:06:59;9.90;99.90
34646;DHT22;20857;47.808;12.482;2023-05-20T00:09:25;9.80;99.90
34646;DHT22;20857;47.808;12.482;2023-05-20T00:11:50;9.80;99.90
34646;DHT22;20857;47.808;12.482;2023-05-20T00:14:16;9.80;99.90
34646;DHT22;20857;47.808;12.482;2023-05-20T00:16:41;9.80;99.90
34646;DHT22;20857;47.808;12.482;2023-05-20T00:19:07;9.90;99.90
34646;DHT22;20857;47.808;12.482;2023-05-20T00:21:33;9.70;99.90
34646;DHT22;20857;47.808;12.482;2023-05-20T00:23:58;9.70;99.90
34646;DHT22;20857;47.808;12.482;2023-05-20T00:26:24;9.80;99.90
34646;DHT22;20857;47.808;12.482;2023-05-20T00:28:50;9.70;99.90
34646;DHT22;20857;47.808;12.482;2023-05-20T00:31:16;9.60;99.90
34646;DHT22;20857;47.808;12.482;2023-05-20T00:33:41;9.70;99.90
34646;DHT22;20857;47.808;12.482;2023-05-20T00:36:07;9.90;99.90
34646;DHT22;20857;47.808;12.482;2023-05-20T00:38:33;9.60;99.90
34646;DHT22;20857;47.808;12.482;2023-05-20T00:40:58;9.50;99.90
34646;DHT22;20857;47.808;12.482;2023-05-20T00:43:24;9.60;99.90
34646;DHT22;20857;47.808;12.482;2023-05-20T00:45:51;9.60;99.90
34646;DHT22;20857;47.808;12.482;2023-05-20T00:48:17;9.50;99.90
34646;DHT22;20857;47.808;12.482;2023-05-20T00:50:42;9.50;99.90
34646;DHT22;20857;47.808;12.482;2023-05-20T00:53:08;9.30;99.90
34646;DHT22;20857;47.808;12.482;2023-05-20T00:55:34;9.60;99.90
34646;DHT22;20857;47.808;12.482;2023-05-20T00:58:00;9.30;99.90
34646;DHT22;20857;47.808;12.482;2023-05-20T01:00:25;10.20;99.90
34646;DHT22;20857;47.808;12.482;2023-05-20T01:02:50;9.30;99.90
34646;DHT22;20857;47.808;12.482;2023-05-20T01:05:16;9.30;99.90
34646;DHT22;20857;47.808;12.482;2023-05-20T01:07:42;9.20;99.90
34646;DHT22;20857;47.808;12.482;2023-05-20T01:10:07;9.30;99.90
34646;DHT22;20857;47.808;12.482;2023-05-20T01:12:53;9.20;99.90
34646;DHT22;20857;47.808;12.482;2023-05-20T01:15:20;9.20;99.90
34646;DHT22;20857;47.808;12.482;2023-05-20T01:17:47;9.20;99.90
34646;DHT22;20857;47.808;12.482;2023-05-20T01:20:14;9.30;99.90
34646;DHT22;20857;47.808;12.482;2023-05-20T01:22:52;9.30;99.90
34646;DHT22;20857;47.808;12.482;2023-05-20T01:25:17;9.30;99.90
34646;DHT22;20857;47.808;12.482;2023-05-20T01:27:43;9.70;99.90
34646;DHT22;20857;47.808;12.482;2023-05-20T01:30:09;9.30;99.90
34646;DHT22;20857;47.808;12.482;2023-05-20T01:32:36;9.10;99.90
34646;DHT22;20857;47.808;12.482;2023-05-20T01:35:02;9.80;99.90
34646;DHT22;20857;47.808;12.482;2023-05-20T01:37:28;9.10;99.90
34646;DHT22;20857;47.808;12.482;2023-05-20T01:39:55;9.20;99.90
34646;DHT22;20857;47.808;12.482;2023-05-20T01:42:21;9.20;99.90
34646;DHT22;20857;47.808;12.482;2023-05-20T01:44:47;9.10;99.90
34646;DHT22;20857;47.808;12.482;2023-05-20T01:47:12;9.10;99.90
34646;DHT22;20857;47.808;12.482;2023-05-20T01:49:38;9.10;99.90
34646;DHT22;20857;47.808;12.482;2023-05-20T01:52:04;9.30;99.90
34646;DHT22;20857;47.808;12.482;2023-05-20T01:54:29;9.10;99.90
34646;DHT22;20857;47.808;12.482;2023-05-20T01:56:55;9.10;99.90
34646;DHT22;20857;47.808;12.482;2023-05-20T01:59:20;9.10;99.90
34646;DHT22;20857;47.808;12.482;2023-05-20T02:01:46;9.60;99.90
34646;DHT22;20857;47.808;12.482;2023-05-20T02:04:11;9.00;99.90
34646;DHT22;20857;47.808;12.482;2023-05-20T02:06:37;9.40;99.90
34646;DHT22;20857;47.808;12.482;2023-05-20T02:09:02;9.10;99.90
34646;DHT22;20857;47.808;12.482;2023-05-20T02:11:28;9.10;99.90
34646;DHT22;20857;47.808;12.482;2023-05-20T02:13:53;9.10;99.90
34646;DHT22;20857;47.808;12.482;2023-05-20T02:16:19;9.00;99.90
34646;DHT22;20857;47.808;12.482;2023-05-20T02:18:44;9.00;99.90
34646;DHT22;20857;47.808;12.482;2023-05-20T02:21:10;9.00;99.90
34646;DHT22;20857;47.808;12.482;2023-05-20T02:23:35;8.90;99.90
34646;DHT22;20857;47.808;12.482;2023-05-20T02:26:02;8.70;99.90
34646;DHT22;20857;47.808;12.482;2023-05-20T02:28:27;8.70;99.90
34646;DHT22;20857;47.808;12.482;2023-05-20T02:30:53;8.70;99.90
34646;DHT22;20857;47.808;12.482;2023-05-20T02:33:18;8.80;99.90
34646;DHT22;20857;47.808;12.482;2023-05-20T02:35:44;8.80;99.90
34646;DHT22;20857;47.808;12.482;2023-05-20T02:38:10;8.70;99.90
34646;DHT22;20857;47.808;12.482;2023-05-20T02:40:36;8.80;99.90
34646;DHT22;20857;47.808;12.482;2023-05-20T02:43:01;8.80;99.90
34646;DHT22;20857;47.808;12.482;2023-05-20T02:45:27;9.40;99.90
34646;DHT22;20857;47.808;12.482;2023-05-20T02:47:52;9.40;99.90
34646;DHT22;20857;47.808;12.482;2023-05-20T02:50:21;9.30;99.90
34646;DHT22;20857;47.808;12.482;2023-05-20T02:52:46;8.90;99.90
34646;DHT22;20857;47.808;12.482;2023-05-20T02:55:12;8.90;99.90
34646;DHT22;20857;47.808;12.482;2023-05-20T02:57:38;8.80;99.90
34646;DHT22;20857;47.808;12.482;2023-05-20T03:00:04;8.70;99.90
34646;DHT22;20857;47.808;12.482;2023-05-20T03:02:31;8.70;99.90
34646;DHT22;20857;47.808;12.482;2023-05-20T03:04:57;9.60;99.90
34646;DHT22;20857;47.808;12.482;2023-05-20T03:07:22;8.50;99.90
34646;DHT22;20857;47.808;12.482;2023-05-20T03:09:48;8.40;99.90
34646;DHT22;20857;47.808;12.482;2023-05-20T03:12:13;8.40;99.90
34646;DHT22;20857;47.808;12.482;2023-05-20T03:14:39;8.30;99.90
34646;DHT22;20857;47.808;12.482;2023-05-20T03:17:04;8.30;99.90
34646;DHT22;20857;47.808;12.482;2023-05-20T03:19:30;8.40;99.90
34646;DHT22;20857;47.808;12.482;2023-05-20T03:21:55;8.40;99.90
34646;DHT22;20857;47.808;12.482;2023-05-20T03:24:22;8.80;99.90
34646;DHT22;20857;47.808;12.482;2023-05-20T03:26:47;8.30;99.90
34646;DHT22;20857;47.808;12.482;2023-05-20T03:29:13;8.90;99.90
34646;DHT22;20857;47.808;12.482;2023-05-20T03:31:39;8.50;99.90
34646;DHT22;20857;47.808;12.482;2023-05-20T03:34:04;8.60;99.90
34646;DHT22;20857;47.808;12.482;2023-05-20T03:36:30;8.50;99.90
34646;DHT22;20857;47.808;12.482;2023-05-20T03:38:56;9.10;99.90
34646;DHT22;20857;47.808;12.482;2023-05-20T03:41:21;8.40;99.90
34646;DHT22;20857;47.808;12.482;2023-05-20T03:43:47;8.30;99.90
34646;DHT22;20857;47.808;12.482;2023-05-20T03:46:12;8.70;99.90
34646;DHT22;20857;47.808;12.482;2023-05-20T03:48:38;8.40;99.90
34646;DHT22;20857;47.808;12.482;2023-05-20T03:51:03;8.30;99.90
34646;DHT22;20857;47.808;12.482;2023-05-20T03:53:29;8.40;99.90
34646;DHT22;20857;47.808;12.482;2023-05-20T03:55:54;8.40;99.90
34646;DHT22;20857;47.808;12.482;2023-05-20T03:58:20;8.50;99.90
34646;DHT22;20857;47.808;12.482;2023-05-20T04:00:46;8.50;99.90
34646;DHT22;20857;47.808;12.482;2023-05-20T04:03:12;8.50;99.90
34646;DHT22;20857;47.808;12.482;2023-05-20T04:05:37;8.60;99.90
34646;DHT22;20857;47.808;12.482;2023-05-20T04:08:03;8.70;99.90
34646;DHT22;20857;47.808;12.482;2023-05-20T04:10:32;8.70;99.90
34646;DHT22;20857;47.808;12.482;2023-05-20T04:12:57;8.90;99.90
34646;DHT22;20857;47.808;12.482;2023-05-20T04:15:23;8.90;99.90
34646;DHT22;20857;47.808;12.482;2023-05-20T04:17:49;9.00;99.90
34646;DHT22;20857;47.808;12.482;2023-05-20T04:20:16;8.90;99.90
34646;DHT22;20857;47.808;12.482;2023-05-20T04:22:43;8.90;99.90
34646;DHT22;20857;47.808;12.482;2023-05-20T04:25:08;8.90;99.90
34646;DHT22;20857;47.808;12.482;2023-05-20T04:27:34;9.00;99.90
34646;DHT22;20857;47.808;12.482;2023-05-20T04:30:02;9.30;99.90
34646;DHT22;20857;47.808;12.482;2023-05-20T04:32:28;9.10;99.90
34646;DHT22;20857;47.808;12.482;2023-05-20T04:34:54;9.20;99.90
34646;DHT22;20857;47.808;12.482;2023-05-20T04:37:20;10.20;99.90
34646;DHT22;20857;47.808;12.482;2023-05-20T04:39:46;9.20;99.90
34646;DHT22;20857;47.808;12.482;2023-05-20T04:42:14;9.40;99.90
34646;DHT22;20857;47.808;12.482;2023-05-20T04:44:40;9.40;99.90
34646;DHT22;20857;47.808;12.482;2023-05-20T04:47:05;9.50;99.90
34646;DHT22;20857;47.808;12.482;2023-05-20T04:49:33;9.50;99.90
34646;DHT22;20857;47.808;12.482;2023-05-20T04:51:59;9.40;99.90
34646;DHT22;20857;47.808;12.482;2023-05-20T04:54:25;9.50;99.90
34646;DHT22;20857;47.808;12.482;2023-05-20T04:56:50;9.20;99.90
34646;DHT22;20857;47.808;12.482;2023-05-20T04:59:16;9.30;99.90
34646;DHT22;20857;47.808;12.482;2023-05-20T05:01:41;9.40;99.90
34646;DHT22;20857;47.808;12.482;2023-05-20T05:04:07;9.60;99.90
34646;DHT22;20857;47.808;12.482;2023-05-20T05:06:32;10.10;99.90
34646;DHT22;20857;47.808;12.482;2023-05-20T05:08:58;9.80;99.90
34646;DHT22;20857;47.808;12.482;2023-05-20T05:11:23;9.60;99.90
34646;DHT22;20857;47.808;12.482;2023-05-20T05:13:49;9.60;99.90
34646;DHT22;20857;47.808;12.482;2023-05-20T05:16:14;9.80;99.90
34646;DHT22;20857;47.808;12.482;2023-05-20T05:18:40;10.00;99.90
34646;DHT22;20857;47.808;12.482;2023-05-20T05:21:05;10.20;99.90
34646;DHT22;20857;47.808;12.482;2023-05-20T05:23:31;10.30;99.90
34646;DHT22;20857;47.808;12.482;2023-05-20T05:25:57;10.50;99.90
34646;DHT22;20857;47.808;12.482;2023-05-20T05:28:22;10.60;99.90
34646;DHT22;20857;47.808;12.482;2023-05-20T05:30:48;10.80;99.90
34646;DHT22;20857;47.808;12.482;2023-05-20T05:33:14;10.90;99.90
34646;DHT22;20857;47.808;12.482;2023-05-20T05:35:40;11.00;99.90
34646;DHT22;20857;47.808;12.482;2023-05-20T05:38:06;11.30;99.90
34646;DHT22;20857;47.808;12.482;2023-05-20T05:40:31;11.60;99.90
34646;DHT22;20857;47.808;12.482;2023-05-20T05:42:57;11.80;99.90
34646;DHT22;20857;47.808;12.482;2023-05-20T05:45:22;11.90;99.90
34646;DHT22;20857;47.808;12.482;2023-05-20T05:47:47;12.10;99.90
34646;DHT22;20857;47.808;12.482;2023-05-20T05:50:13;12.30;99.90
34646;DHT22;20857;47.808;12.482;2023-05-20T05:52:38;12.30;99.90
34646;DHT22;20857;47.808;12.482;2023-05-20T05:55:04;12.30;99.90
34646;DHT22;20857;47.808;12.482;2023-05-20T05:57:30;12.50;99.90
34646;DHT22;20857;47.808;12.482;2023-05-20T05:59:55;12.60;99.90
34646;DHT22;20857;47.808;12.482;2023-05-20T06:02:21;12.70;99.90
34646;DHT22;20857;47.808;12.482;2023-05-20T06:04:46;13.00;99.90
34646;DHT22;20857;47.808;12.482;2023-05-20T06:07:12;13.00;99.90
34646;DHT22;20857;47.808;12.482;2023-05-20T06:09:37;13.10;99.90
34646;DHT22;20857;47.808;12.482;2023-05-20T06:12:03;13.30;99.90
34646;DHT22;20857;47.808;12.482;2023-05-20T06:14:29;13.30;99.90
34646;DHT22;20857;47.808;12.482;2023-05-20T06:16:54;13.50;99.90
34646;DHT22;20857;47.808;12.482;2023-05-20T06:19:20;13.50;99.90
34646;DHT22;20857;47.808;12.482;2023-05-20T06:21:46;13.50;99.90
34646;DHT22;20857;47.808;12.482;2023-05-20T06:24:11;13.80;99.90
34646;DHT22;20857;47.808;12.482;2023-05-20T06:26:37;13.80;99.90
34646;DHT22;20857;47.808;12.482;2023-05-20T06:29:02;13.80;99.90
34646;DHT22;20857;47.808;12.482;2023-05-20T06:31:28;13.70;99.90
34646;DHT22;20857;47.808;12.482;2023-05-20T06:33:54;13.90;99.90
34646;DHT22;20857;47.808;12.482;2023-05-20T06:36:20;14.00;99.90
34646;DHT22;20857;47.808;12.482;2023-05-20T06:38:45;13.80;99.90
34646;DHT22;20857;47.808;12.482;2023-05-20T06:41:11;13.80;99.90
34646;DHT22;20857;47.808;12.482;2023-05-20T06:43:37;13.80;99.90
34646;DHT22;20857;47.808;12.482;2023-05-20T06:46:02;14.00;99.90
34646;DHT22;20857;47.808;12.482;2023-05-20T06:48:28;14.00;99.90
34646;DHT22;20857;47.808;12.482;2023-05-20T06:50:53;13.90;99.90
34646;DHT22;20857;47.808;12.482;2023-05-20T06:53:19;13.80;99.90
34646;DHT22;20857;47.808;12.482;2023-05-20T06:55:45;13.80;99.90
34646;DHT22;20857;47.808;12.482;2023-05-20T06:58:11;13.70;99.90
34646;DHT22;20857;47.808;12.482;2023-05-20T07:00:36;13.80;99.90
34646;DHT22;20857;47.808;12.482;2023-05-20T07:03:02;13.90;99.90
34646;DHT22;20857;47.808;12.482;2023-05-20T07:05:27;13.80;99.90
34646;DHT22;20857;47.808;12.482;2023-05-20T07:07:53;14.00;99.90
34646;DHT22;20857;47.808;12.482;2023-05-20T07:10:18;14.10;99.90
34646;DHT22;20857;47.808;12.482;2023-05-20T07:12:44;14.50;99.90
34646;DHT22;20857;47.808;12.482;2023-05-20T07:15:10;14.50;99.90
34646;DHT22;20857;47.808;12.482;2023-05-20T07:17:35;14.70;99.90
34646;DHT22;20857;47.808;12.482;2023-05-20T07:20:01;14.70;99.90
34646;DHT22;20857;47.808;12.482;2023-05-20T07:22:28;14.80;99.90
34646;DHT22;20857;47.808;12.482;2023-05-20T07:24:54;15.00;99.90
34646;DHT22;20857;47.808;12.482;2023-05-20T07:27:19;14.70;99.90
34646;DHT22;20857;47.808;12.482;2023-05-20T07:29:45;15.20;99.90
34646;DHT22;20857;47.808;12.482;2023-05-20T07:32:10;14.90;99.90
34646;DHT22;20857;47.808;12.482;2023-05-20T07:34:36;15.10;99.90
34646;DHT22;20857;47.808;12.482;2023-05-20T07:37:02;15.10;99.90
34646;DHT22;20857;47.808;12.482;2023-05-20T07:39:27;15.00;99.90
34646;DHT22;20857;47.808;12.482;2023-05-20T07:41:53;15.10;99.90
34646;DHT22;20857;47.808;12.482;2023-05-20T07:44:18;15.10;99.90
34646;DHT22;20857;47.808;12.482;2023-05-20T07:46:45;15.30;99.90
34646;DHT22;20857;47.808;12.482;2023-05-20T07:49:11;15.40;99.90
34646;DHT22;20857;47.808;12.482;2023-05-20T07:51:36;15.60;99.90
34646;DHT22;20857;47.808;12.482;2023-05-20T07:54:02;15.90;99.90
34646;DHT22;20857;47.808;12.482;2023-05-20T07:56:27;16.20;99.90
34646;DHT22;20857;47.808;12.482;2023-05-20T07:58:54;16.30;99.90
34646;DHT22;20857;47.808;12.482;2023-05-20T08:01:20;16.40;99.90
34646;DHT22;20857;47.808;12.482;2023-05-20T08:03:46;16.60;99.90
34646;DHT22;20857;47.808;12.482;2023-05-20T08:06:11;16.80;99.90
34646;DHT22;20857;47.808;12.482;2023-05-20T08:08:37;16.80;99.90
34646;DHT22;20857;47.808;12.482;2023-05-20T08:11:05;16.80;99.90
34646;DHT22;20857;47.808;12.482;2023-05-20T08:13:30;16.80;99.90
34646;DHT22;20857;47.808;12.482;2023-05-20T08:15:55;16.70;99.90
34646;DHT22;20857;47.808;12.482;2023-05-20T08:18:21;16.80;99.90
34646;DHT22;20857;47.808;12.482;2023-05-20T08:20:47;16.90;99.90
34646;DHT22;20857;47.808;12.482;2023-05-20T08:23:12;17.00;99.90
34646;DHT22;20857;47.808;12.482;2023-05-20T08:25:38;17.00;99.90
34646;DHT22;20857;47.808;12.482;2023-05-20T08:28:04;16.80;99.90
34646;DHT22;20857;47.808;12.482;2023-05-20T08:30:31;16.90;99.90
34646;DHT22;20857;47.808;12.482;2023-05-20T08:32:56;17.10;99.90
34646;DHT22;20857;47.808;12.482;2023-05-20T08:35:22;17.00;99.90
34646;DHT22;20857;47.808;12.482;2023-05-20T08:37:48;16.90;99.90
34646;DHT22;20857;47.808;12.482;2023-05-20T08:40:13;17.00;99.90
34646;DHT22;20857;47.808;12.482;2023-05-20T08:42:42;17.10;99.90
34646;DHT22;20857;47.808;12.482;2023-05-20T08:45:10;17.30;99.90
34646;DHT22;20857;47.808;12.482;2023-05-20T08:47:40;17.40;99.90
34646;DHT22;20857;47.808;12.482;2023-05-20T08:50:06;17.60;99.90
34646;DHT22;20857;47.808;12.482;2023-05-20T08:52:33;17.60;99.90
34646;DHT22;20857;47.808;12.482;2023-05-20T08:54:59;17.90;99.90
34646;DHT22;20857;47.808;12.482;2023-05-20T08:57:25;18.20;99.90
34646;DHT22;20857;47.808;12.482;2023-05-20T08:59:50;18.60;99.90
34646;DHT22;20857;47.808;12.482;2023-05-20T09:02:16;18.90;99.90
34646;DHT22;20857;47.808;12.482;2023-05-20T09:04:41;19.20;99.90
34646;DHT22;20857;47.808;12.482;2023-05-20T09:07:07;19.70;99.90
34646;DHT22;20857;47.808;12.482;2023-05-20T09:09:33;20.10;99.90
34646;DHT22;20857;47.808;12.482;2023-05-20T09:11:59;20.20;99.90
34646;DHT22;20857;47.808;12.482;2023-05-20T09:14:24;20.30;99.90
34646;DHT22;20857;47.808;12.482;2023-05-20T09:16:52;20.50;99.90
34646;DHT22;20857;47.808;12.482;2023-05-20T09:19:21;20.50;99.90
34646;DHT22;20857;47.808;12.482;2023-05-20T09:21:47;20.50;99.90
34646;DHT22;20857;47.808;12.482;2023-05-20T09:24:12;20.30;99.90
34646;DHT22;20857;47.808;12.482;2023-05-20T09:26:38;20.30;99.90
34646;DHT22;20857;47.808;12.482;2023-05-20T09:29:03;20.10;99.90
34646;DHT22;20857;47.808;12.482;2023-05-20T09:31:29;20.10;99.90
34646;DHT22;20857;47.808;12.482;2023-05-20T09:33:55;19.80;99.90
34646;DHT22;20857;47.808;12.482;2023-05-20T09:36:24;20.10;99.90
34646;DHT22;20857;47.808;12.482;2023-05-20T09:38:51;20.20;99.90
34646;DHT22;20857;47.808;12.482;2023-05-20T09:41:17;20.60;99.90
34646;DHT22;20857;47.808;12.482;2023-05-20T09:43:46;20.60;99.90
34646;DHT22;20857;47.808;12.482;2023-05-20T09:46:11;20.60;99.90
34646;DHT22;20857;47.808;12.482;2023-05-20T09:48:37;20.50;99.90
34646;DHT22;20857;47.808;12.482;2023-05-20T09:51:04;20.50;99.90
34646;DHT22;20857;47.808;12.482;2023-05-20T09:53:30;20.90;99.90
34646;DHT22;20857;47.808;12.482;2023-05-20T09:55:55;21.00;99.90
34646;DHT22;20857;47.808;12.482;2023-05-20T09:58:21;21.10;99.90
34646;DHT22;20857;47.808;12.482;2023-05-20T10:00:47;21.30;99.90
34646;DHT22;20857;47.808;12.482;2023-05-20T10:03:13;21.50;99.90
34646;DHT22;20857;47.808;12.482;2023-05-20T10:05:43;21.60;99.90
34646;DHT22;20857;47.808;12.482;2023-05-20T10:15:57;22.50;99.90
34646;DHT22;20857;47.808;12.482;2023-05-20T10:20:56;22.00;99.90
34646;DHT22;20857;47.808;12.482;2023-05-20T10:25:50;22.10;99.90
34646;DHT22;20857;47.808;12.482;2023-05-20T10:28:23;22.00;99.90
34646;DHT22;20857;47.808;12.482;2023-05-20T10:30:51;22.20;99.90
34646;DHT22;20857;47.808;12.482;2023-05-20T10:33:17;22.60;99.90
34646;DHT22;20857;47.808;12.482;2023-05-20T10:35:46;23.20;99.90
34646;DHT22;20857;47.808;12.482;2023-05-20T10:38:12;23.40;99.90
34646;DHT22;20857;47.808;12.482;2023-05-20T10:40:38;23.40;99.90
34646;DHT22;20857;47.808;12.482;2023-05-20T10:43:10;23.10;99.90
34646;DHT22;20857;47.808;12.482;2023-05-20T10:45:46;23.10;99.90
34646;DHT22;20857;47.808;12.482;2023-05-20T10:48:18;23.10;99.90
34646;DHT22;20857;47.808;12.482;2023-05-20T10:50:44;23.40;99.90
34646;DHT22;20857;47.808;12.482;2023-05-20T10:53:13;23.70;99.90
34646;DHT22;20857;47.808;12.482;2023-05-20T10:55:39;24.10;99.90
34646;DHT22;20857;47.808;12.482;2023-05-20T10:58:05;24.10;99.90
34646;DHT22;20857;47.808;12.482;2023-05-20T11:00:34;23.80;99.90
34646;DHT22;20857;47.808;12.482;2023-05-20T11:03:01;23.50;99.90
34646;DHT22;20857;47.808;12.482;2023-05-20T11:05:27;23.50;99.90
34646;DHT22;20857;47.808;12.482;2023-05-20T11:08:03;23.70;99.90
34646;DHT22;20857;47.808;12.482;2023-05-20T11:10:29;23.70;99.90
34646;DHT22;20857;47.808;12.482;2023-05-20T11:12:56;23.80;99.90
34646;DHT22;20857;47.808;12.482;2023-05-20T11:15:22;24.00;99.90
34646;DHT22;20857;47.808;12.482;2023-05-20T11:17:51;24.40;99.90
34646;DHT22;20857;47.808;12.482;2023-05-20T11:20:17;24.10;99.90
34646;DHT22;20857;47.808;12.482;2023-05-20T11:22:43;23.80;99.90
34646;DHT22;20857;47.808;12.482;2023-05-20T11:25:09;23.80;99.20
34646;DHT22;20857;47.808;12.482;2023-05-20T11:27:37;24.10;99.80
34646;DHT22;20857;47.808;12.482;2023-05-20T11:30:03;24.20;99.90
34646;DHT22;20857;47.808;12.482;2023-05-20T11:32:30;24.20;99.90
34646;DHT22;20857;47.808;12.482;2023-05-20T11:34:55;24.30;99.40
34646;DHT22;20857;47.808;12.482;2023-05-20T11:37:22;24.50;98.80
34646;DHT22;20857;47.808;12.482;2023-05-20T11:39:48;24.60;98.50
34646;DHT22;20857;47.808;12.482;2023-05-20T11:42:14;24.40;97.10
34646;DHT22;20857;47.808;12.482;2023-05-20T11:44:43;24.40;98.20
34646;DHT22;20857;47.808;12.482;2023-05-20T11:47:09;24.70;97.80
34646;DHT22;20857;47.808;12.482;2023-05-20T11:49:38;25.20;96.00
34646;DHT22;20857;47.808;12.482;2023-05-20T11:52:04;25.80;96.00
34646;DHT22;20857;47.808;12.482;2023-05-20T11:54:30;26.50;95.80
34646;DHT22;20857;47.808;12.482;2023-05-20T11:56:59;27.20;96.00
34646;DHT22;20857;47.808;12.482;2023-05-20T11:59:25;27.70;95.20
34646;DHT22;20857;47.808;12.482;2023-05-20T12:01:51;28.20;94.90
34646;DHT22;20857;47.808;12.482;2023-05-20T12:04:16;28.80;92.80
34646;DHT22;20857;47.808;12.482;2023-05-20T12:06:42;29.00;91.70
34646;DHT22;20857;47.808;12.482;2023-05-20T12:09:09;28.90;91.30
34646;DHT22;20857;47.808;12.482;2023-05-20T12:11:35;27.80;91.50
34646;DHT22;20857;47.808;12.482;2023-05-20T12:14:04;27.70;91.30
34646;DHT22;20857;47.808;12.482;2023-05-20T12:16:30;27.40;91.30
34646;DHT22;20857;47.808;12.482;2023-05-20T12:18:56;27.00;90.50
34646;DHT22;20857;47.808;12.482;2023-05-20T12:21:21;27.20;90.10
34646;DHT22;20857;47.808;12.482;2023-05-20T12:23:47;28.20;83.90
34646;DHT22;20857;47.808;12.482;2023-05-20T12:26:12;28.30;86.80
34646;DHT22;20857;47.808;12.482;2023-05-20T12:28:38;28.60;85.10
34646;DHT22;20857;47.808;12.482;2023-05-20T12:31:04;27.80;86.20
34646;DHT22;20857;47.808;12.482;2023-05-20T12:33:30;27.30;84.80
34646;DHT22;20857;47.808;12.482;2023-05-20T12:35:55;26.50;85.10
34646;DHT22;20857;47.808;12.482;2023-05-20T12:38:23;26.30;87.00
34646;DHT22;20857;47.808;12.482;2023-05-20T12:40:49;26.20;86.50
34646;DHT22;20857;47.808;12.482;2023-05-20T12:43:14;24.80;84.80
34646;DHT22;20857;47.808;12.482;2023-05-20T12:45:40;25.90;85.70
34646;DHT22;20857;47.808;12.482;2023-05-20T12:48:06;25.90;84.10
34646;DHT22;20857;47.808;12.482;2023-05-20T12:50:32;25.90;83.00
34646;DHT22;20857;47.808;12.482;2023-05-20T12:52:57;25.90;81.00
34646;DHT22;20857;47.808;12.482;2023-05-20T12:55:23;26.10;86.30
34646;DHT22;20857;47.808;12.482;2023-05-20T12:57:48;26.30;81.90
34646;DHT22;20857;47.808;12.482;2023-05-20T13:00:14;26.40;84.70
34646;DHT22;20857;47.808;12.482;2023-05-20T13:02:40;26.60;86.60
34646;DHT22;20857;47.808;12.482;2023-05-20T13:05:06;27.40;86.30
34646;DHT22;20857;47.808;12.482;2023-05-20T13:07:31;27.40;85.90
34646;DHT22;20857;47.808;12.482;2023-05-20T13:09:57;27.10;85.20
34646;DHT22;20857;47.808;12.482;2023-05-20T13:12:23;26.80;79.70
34646;DHT22;20857;47.808;12.482;2023-05-20T13:14:48;27.00;79.00
34646;DHT22;20857;47.808;12.482;2023-05-20T13:17:14;28.00;81.20
34646;DHT22;20857;47.808;12.482;2023-05-20T13:19:40;29.50;74.80
34646;DHT22;20857;47.808;12.482;2023-05-20T13:22:06;29.50;75.60
34646;DHT22;20857;47.808;12.482;2023-05-20T13:24:33;29.40;70.80
34646;DHT22;20857;47.808;12.482;2023-05-20T13:26:59;29.40;74.00
34646;DHT22;20857;47.808;12.482;2023-05-20T13:29:25;29.20;72.20
34646;DHT22;20857;47.808;12.482;2023-05-20T13:31:51;29.00;73.30
34646;DHT22;20857;47.808;12.482;2023-05-20T13:34:18;27.70;69.70
34646;DHT22;20857;47.808;12.482;2023-05-20T13:36:43;27.60;71.30
34646;DHT22;20857;47.808;12.482;2023-05-20T13:39:10;27.30;72.10
34646;DHT22;20857;47.808;12.482;2023-05-20T13:41:36;27.70;71.10
34646;DHT22;20857;47.808;12.482;2023-05-20T13:44:02;27.80;72.50
34646;DHT22;20857;47.808;12.482;2023-05-20T13:46:27;28.30;74.80
34646;DHT22;20857;47.808;12.482;2023-05-20T13:48:53;28.80;74.00
34646;DHT22;20857;47.808;12.482;2023-05-20T13:51:18;28.90;73.00
34646;DHT22;20857;47.808;12.482;2023-05-20T13:53:44;29.00;74.70
34646;DHT22;20857;47.808;12.482;2023-05-20T13:58:45;29.70;73.00
34646;DHT22;20857;47.808;12.482;2023-05-20T14:01:12;30.30;72.10
34646;DHT22;20857;47.808;12.482;2023-05-20T14:03:38;31.10;70.20
34646;DHT22;20857;47.808;12.482;2023-05-20T14:06:05;31.20;69.60
34646;DHT22;20857;47.808;12.482;2023-05-20T14:08:30;31.00;67.30
34646;DHT22;20857;47.808;12.482;2023-05-20T14:10:56;30.10;66.20
34646;DHT22;20857;47.808;12.482;2023-05-20T14:13:21;30.00;67.50
34646;DHT22;20857;47.808;12.482;2023-05-20T14:15:47;29.50;67.40
34646;DHT22;20857;47.808;12.482;2023-05-20T14:18:15;29.60;68.70
34646;DHT22;20857;47.808;12.482;2023-05-20T14:20:40;29.30;69.30
34646;DHT22;20857;47.808;12.482;2023-05-20T14:23:06;28.90;68.40
34646;DHT22;20857;47.808;12.482;2023-05-20T14:25:32;28.60;64.60
34646;DHT22;20857;47.808;12.482;2023-05-20T14:27:57;28.00;69.00
34646;DHT22;20857;47.808;12.482;2023-05-20T14:30:23;27.60;69.70
34646;DHT22;20857;47.808;12.482;2023-05-20T14:32:49;27.70;68.40
34646;DHT22;20857;47.808;12.482;2023-05-20T14:35:15;28.40;70.90
34646;DHT22;20857;47.808;12.482;2023-05-20T14:37:42;29.70;65.70
34646;DHT22;20857;47.808;12.482;2023-05-20T14:40:08;29.80;66.40
34646;DHT22;20857;47.808;12.482;2023-05-20T14:42:34;29.50;65.50
34646;DHT22;20857;47.808;12.482;2023-05-20T14:44:59;28.80;66.70
34646;DHT22;20857;47.808;12.482;2023-05-20T14:47:25;27.70;64.80
34646;DHT22;20857;47.808;12.482;2023-05-20T14:49:50;27.00;68.00
34646;DHT22;20857;47.808;12.482;2023-05-20T14:52:16;26.60;67.20
34646;DHT22;20857;47.808;12.482;2023-05-20T14:54:42;26.60;66.70
34646;DHT22;20857;47.808;12.482;2023-05-20T14:57:08;26.60;68.20
34646;DHT22;20857;47.808;12.482;2023-05-20T14:59:33;26.60;67.80
34646;DHT22;20857;47.808;12.482;2023-05-20T15:01:59;27.70;66.20
34646;DHT22;20857;47.808;12.482;2023-05-20T15:04:25;28.80;67.00
34646;DHT22;20857;47.808;12.482;2023-05-20T15:06:51;29.40;66.40
34646;DHT22;20857;47.808;12.482;2023-05-20T15:09:16;30.10;64.20
34646;DHT22;20857;47.808;12.482;2023-05-20T15:11:42;32.30;60.10
34646;DHT22;20857;47.808;12.482;2023-05-20T15:14:08;32.80;62.50
34646;DHT22;20857;47.808;12.482;2023-05-20T15:16:33;32.80;62.60
34646;DHT22;20857;47.808;12.482;2023-05-20T15:18:59;32.20;60.90
34646;DHT22;20857;47.808;12.482;2023-05-20T15:21:25;31.40;60.80
34646;DHT22;20857;47.808;12.482;2023-05-20T15:23:50;30.40;61.70
34646;DHT22;20857;47.808;12.482;2023-05-20T15:26:16;30.20;62.10
34646;DHT22;20857;47.808;12.482;2023-05-20T15:28:41;30.20;62.60